sensor_id;sensor_type;location;lat;lon;timestamp;P1;durP1;ratioP1;P2;durP2;ratioP2
13816;SDS011;6979;52.116;5.286;2022-09-09T00:01:58;1.50;;;1.40;;
13816;SDS011;6979;52.116;5.286;2022-09-09T00:04:30;1.70;;;1.60;;
13816;SDS011;6979;52.116;5.286;2022-09-09T00:07:03;2.73;;;1.80;;
13816;SDS011;6979;52.116;5.286;2022-09-09T00:09:39;2.70;;;2.03;;
13816;SDS011;6979;52.116;5.286;2022-09-09T00:12:11;1.57;;;1.47;;
13816;SDS011;6979;52.116;5.286;2022-09-09T00:14:45;1.20;;;1.20;;
13816;SDS011;6979;52.116;5.286;2022-09-09T00:17:18;1.80;;;1.50;;
13816;SDS011;6979;52.116;5.286;2022-09-09T00:19:55;1.67;;;1.57;;
13816;SDS011;6979;52.116;5.286;2022-09-09T00:22:27;1.47;;;1.47;;
13816;SDS011;6979;52.116;5.286;2022-09-09T00:24:58;1.53;;;1.53;;
13816;SDS011;6979;52.116;5.286;2022-09-09T00:27:36;1.40;;;1.30;;
13816;SDS011;6979;52.116;5.286;2022-09-09T00:30:13;15.60;;;2.13;;
13816;SDS011;6979;52.116;5.286;2022-09-09T00:32:44;1.83;;;1.73;;
13816;SDS011;6979;52.116;5.286;2022-09-09T00:35:16;1.73;;;1.63;;
13816;SDS011;6979;52.116;5.286;2022-09-09T00:37:47;2.37;;;1.80;;
13816;SDS011;6979;52.116;5.286;2022-09-09T00:40:21;1.63;;;1.53;;
13816;SDS011;6979;52.116;5.286;2022-09-09T00:42:53;1.93;;;1.83;;
13816;SDS011;6979;52.116;5.286;2022-09-09T00:45:37;1.87;;;1.77;;
13816;SDS011;6979;52.116;5.286;2022-09-09T00:48:18;1.50;;;1.50;;
13816;SDS011;6979;52.116;5.286;2022-09-09T00:50:50;1.90;;;1.80;;
13816;SDS011;6979;52.116;5.286;2022-09-09T00:53:27;1.60;;;1.50;;
13816;SDS011;6979;52.116;5.286;2022-09-09T00:56:01;2.07;;;1.83;;
13816;SDS011;6979;52.116;5.286;2022-09-09T00:58:35;1.70;;;1.60;;
13816;SDS011;6979;52.116;5.286;2022-09-09T01:01:03;2.10;;;1.90;;
13816;SDS011;6979;52.116;5.286;2022-09-09T01:03:36;2.30;;;2.10;;
13816;SDS011;6979;52.116;5.286;2022-09-09T01:06:13;2.60;;;2.40;;
13816;SDS011;6979;52.116;5.286;2022-09-09T01:08:46;2.33;;;2.23;;
13816;SDS011;6979;52.116;5.286;2022-09-09T01:11:23;2.67;;;2.23;;
13816;SDS011;6979;52.116;5.286;2022-09-09T01:13:56;2.00;;;1.90;;
13816;SDS011;6979;52.116;5.286;2022-09-09T01:16:32;2.00;;;1.90;;
13816;SDS011;6979;52.116;5.286;2022-09-09T01:18:59;2.33;;;2.23;;
13816;SDS011;6979;52.116;5.286;2022-09-09T01:21:32;2.27;;;2.17;;
13816;SDS011;6979;52.116;5.286;2022-09-09T01:24:14;1.87;;;1.77;;
13816;SDS011;6979;52.116;5.286;2022-09-09T01:27:02;1.93;;;1.83;;
13816;SDS011;6979;52.116;5.286;2022-09-09T01:29:31;2.30;;;2.17;;
13816;SDS011;6979;52.116;5.286;2022-09-09T01:31:59;2.40;;;2.20;;
13816;SDS011;6979;52.116;5.286;2022-09-09T01:34:30;2.27;;;2.17;;
13816;SDS011;6979;52.116;5.286;2022-09-09T01:37:02;2.80;;;2.60;;
13816;SDS011;6979;52.116;5.286;2022-09-09T01:39:31;2.17;;;2.07;;
13816;SDS011;6979;52.116;5.286;2022-09-09T01:42:03;2.40;;;2.20;;
13816;SDS011;6979;52.116;5.286;2022-09-09T01:44:32;2.67;;;2.47;;
13816;SDS011;6979;52.116;5.286;2022-09-09T01:47:02;2.33;;;2.23;;
13816;SDS011;6979;52.116;5.286;2022-09-09T01:49:30;1.83;;;1.73;;
13816;SDS011;6979;52.116;5.286;2022-09-09T01:52:01;2.47;;;2.33;;
13816;SDS011;6979;52.116;5.286;2022-09-09T01:54:33;1.90;;;1.80;;
13816;SDS011;6979;52.116;5.286;2022-09-09T01:57:11;2.07;;;1.97;;
13816;SDS011;6979;52.116;5.286;2022-09-09T01:59:47;2.77;;;2.57;;
13816;SDS011;6979;52.116;5.286;2022-09-09T02:02:23;2.33;;;2.13;;
13816;SDS011;6979;52.116;5.286;2022-09-09T02:05:10;2.30;;;2.20;;
13816;SDS011;6979;52.116;5.286;2022-09-09T02:07:45;2.50;;;2.40;;
13816;SDS011;6979;52.116;5.286;2022-09-09T02:10:28;2.47;;;2.30;;
13816;SDS011;6979;52.116;5.286;2022-09-09T02:13:13;2.40;;;2.30;;
13816;SDS011;6979;52.116;5.286;2022-09-09T02:15:42;2.60;;;2.40;;
13816;SDS011;6979;52.116;5.286;2022-09-09T02:18:14;2.20;;;2.10;;
13816;SDS011;6979;52.116;5.286;2022-09-09T02:20:49;2.40;;;2.30;;
13816;SDS011;6979;52.116;5.286;2022-09-09T02:23:17;2.47;;;2.27;;
13816;SDS011;6979;52.116;5.286;2022-09-09T02:25:47;2.23;;;2.13;;
13816;SDS011;6979;52.116;5.286;2022-09-09T02:28:22;2.83;;;2.63;;
13816;SDS011;6979;52.116;5.286;2022-09-09T02:30:52;3.23;;;2.93;;
13816;SDS011;6979;52.116;5.286;2022-09-09T02:33:25;2.53;;;2.40;;
13816;SDS011;6979;52.116;5.286;2022-09-09T02:35:56;3.10;;;2.90;;
13816;SDS011;6979;52.116;5.286;2022-09-09T02:38:30;2.80;;;2.57;;
13816;SDS011;6979;52.116;5.286;2022-09-09T02:41:07;2.63;;;2.53;;
13816;SDS011;6979;52.116;5.286;2022-09-09T02:43:36;3.13;;;2.93;;
13816;SDS011;6979;52.116;5.286;2022-09-09T02:46:08;2.67;;;2.47;;
13816;SDS011;6979;52.116;5.286;2022-09-09T02:48:51;3.17;;;2.90;;
13816;SDS011;6979;52.116;5.286;2022-09-09T02:51:29;3.10;;;2.90;;
13816;SDS011;6979;52.116;5.286;2022-09-09T02:54:05;3.17;;;2.97;;
13816;SDS011;6979;52.116;5.286;2022-09-09T02:56:38;2.90;;;2.70;;
13816;SDS011;6979;52.116;5.286;2022-09-09T02:59:11;3.43;;;3.20;;
13816;SDS011;6979;52.116;5.286;2022-09-09T03:01:39;3.27;;;3.00;;
13816;SDS011;6979;52.116;5.286;2022-09-09T03:04:06;3.17;;;2.97;;
13816;SDS011;6979;52.116;5.286;2022-09-09T03:06:33;3.30;;;3.10;;
13816;SDS011;6979;52.116;5.286;2022-09-09T03:09:10;2.90;;;2.80;;
13816;SDS011;6979;52.116;5.286;2022-09-09T03:11:37;4.30;;;3.40;;
13816;SDS011;6979;52.116;5.286;2022-09-09T03:14:04;2.90;;;2.73;;
13816;SDS011;6979;52.116;5.286;2022-09-09T03:16:33;2.63;;;2.47;;
13816;SDS011;6979;52.116;5.286;2022-09-09T03:19:00;3.73;;;3.47;;
13816;SDS011;6979;52.116;5.286;2022-09-09T03:21:27;3.23;;;3.10;;
13816;SDS011;6979;52.116;5.286;2022-09-09T03:23:55;4.27;;;3.97;;
13816;SDS011;6979;52.116;5.286;2022-09-09T03:26:22;3.80;;;3.50;;
13816;SDS011;6979;52.116;5.286;2022-09-09T03:28:49;3.73;;;3.53;;
13816;SDS011;6979;52.116;5.286;2022-09-09T03:31:19;3.77;;;3.57;;
13816;SDS011;6979;52.116;5.286;2022-09-09T03:33:48;3.90;;;3.60;;
13816;SDS011;6979;52.116;5.286;2022-09-09T03:36:16;3.27;;;3.07;;
13816;SDS011;6979;52.116;5.286;2022-09-09T03:38:43;3.43;;;3.17;;
13816;SDS011;6979;52.116;5.286;2022-09-09T03:41:11;3.70;;;3.50;;
13816;SDS011;6979;52.116;5.286;2022-09-09T03:43:38;3.57;;;3.23;;
13816;SDS011;6979;52.116;5.286;2022-09-09T03:46:05;3.77;;;3.47;;
13816;SDS011;6979;52.116;5.286;2022-09-09T03:48:31;3.67;;;3.37;;
13816;SDS011;6979;52.116;5.286;2022-09-09T03:51:00;4.20;;;3.80;;
13816;SDS011;6979;52.116;5.286;2022-09-09T03:53:30;3.90;;;3.63;;
13816;SDS011;6979;52.116;5.286;2022-09-09T03:55:58;4.07;;;3.80;;
13816;SDS011;6979;52.116;5.286;2022-09-09T03:58:26;5.00;;;4.60;;
13816;SDS011;6979;52.116;5.286;2022-09-09T04:01:00;3.70;;;3.40;;
13816;SDS011;6979;52.116;5.286;2022-09-09T04:03:29;4.67;;;4.33;;
13816;SDS011;6979;52.116;5.286;2022-09-09T04:05:57;4.23;;;3.83;;
13816;SDS011;6979;52.116;5.286;2022-09-09T04:08:30;4.00;;;3.70;;
13816;SDS011;6979;52.116;5.286;2022-09-09T04:10:58;4.57;;;4.17;;
13816;SDS011;6979;52.116;5.286;2022-09-09T04:13:30;4.93;;;4.37;;
13816;SDS011;6979;52.116;5.286;2022-09-09T04:15:58;3.93;;;3.63;;
13816;SDS011;6979;52.116;5.286;2022-09-09T04:18:26;4.17;;;3.90;;
13816;SDS011;6979;52.116;5.286;2022-09-09T04:20:54;4.57;;;4.23;;
13816;SDS011;6979;52.116;5.286;2022-09-09T04:23:24;4.10;;;3.80;;
13816;SDS011;6979;52.116;5.286;2022-09-09T04:25:57;3.77;;;3.57;;
13816;SDS011;6979;52.116;5.286;2022-09-09T04:28:26;5.03;;;4.33;;
13816;SDS011;6979;52.116;5.286;2022-09-09T04:30:54;4.27;;;3.97;;
13816;SDS011;6979;52.116;5.286;2022-09-09T04:33:23;3.83;;;3.63;;
13816;SDS011;6979;52.116;5.286;2022-09-09T04:35:51;3.97;;;3.73;;
13816;SDS011;6979;52.116;5.286;2022-09-09T04:38:20;4.13;;;3.73;;
13816;SDS011;6979;52.116;5.286;2022-09-09T04:40:49;3.97;;;3.67;;
13816;SDS011;6979;52.116;5.286;2022-09-09T04:43:18;4.40;;;4.00;;
13816;SDS011;6979;52.116;5.286;2022-09-09T04:45:46;4.67;;;4.37;;
13816;SDS011;6979;52.116;5.286;2022-09-09T04:48:14;5.03;;;4.53;;
13816;SDS011;6979;52.116;5.286;2022-09-09T04:50:42;4.40;;;4.10;;
13816;SDS011;6979;52.116;5.286;2022-09-09T04:53:10;4.00;;;3.70;;
13816;SDS011;6979;52.116;5.286;2022-09-09T04:55:38;4.47;;;3.80;;
13816;SDS011;6979;52.116;5.286;2022-09-09T04:58:05;4.53;;;4.23;;
13816;SDS011;6979;52.116;5.286;2022-09-09T05:00:35;4.77;;;4.37;;
13816;SDS011;6979;52.116;5.286;2022-09-09T05:03:04;3.80;;;3.57;;
13816;SDS011;6979;52.116;5.286;2022-09-09T05:05:34;4.47;;;3.80;;
13816;SDS011;6979;52.116;5.286;2022-09-09T05:08:02;3.33;;;3.13;;
13816;SDS011;6979;52.116;5.286;2022-09-09T05:10:30;3.50;;;3.30;;
13816;SDS011;6979;52.116;5.286;2022-09-09T05:12:57;4.17;;;3.87;;
13816;SDS011;6979;52.116;5.286;2022-09-09T05:15:27;5.13;;;4.63;;
13816;SDS011;6979;52.116;5.286;2022-09-09T05:17:58;3.50;;;3.20;;
13816;SDS011;6979;52.116;5.286;2022-09-09T05:20:27;4.53;;;3.40;;
13816;SDS011;6979;52.116;5.286;2022-09-09T05:22:54;4.23;;;3.83;;
13816;SDS011;6979;52.116;5.286;2022-09-09T05:25:25;3.83;;;3.50;;
13816;SDS011;6979;52.116;5.286;2022-09-09T05:27:53;3.60;;;3.40;;
13816;SDS011;6979;52.116;5.286;2022-09-09T05:30:20;3.23;;;3.03;;
13816;SDS011;6979;52.116;5.286;2022-09-09T05:32:50;3.37;;;3.10;;
13816;SDS011;6979;52.116;5.286;2022-09-09T05:35:19;3.60;;;3.30;;
13816;SDS011;6979;52.116;5.286;2022-09-09T05:37:46;4.00;;;3.67;;
13816;SDS011;6979;52.116;5.286;2022-09-09T05:40:13;3.57;;;3.20;;
13816;SDS011;6979;52.116;5.286;2022-09-09T05:42:40;4.67;;;3.80;;
13816;SDS011;6979;52.116;5.286;2022-09-09T05:45:08;3.60;;;3.07;;
13816;SDS011;6979;52.116;5.286;2022-09-09T05:47:36;3.97;;;3.73;;
13816;SDS011;6979;52.116;5.286;2022-09-09T05:50:05;4.23;;;3.93;;
13816;SDS011;6979;52.116;5.286;2022-09-09T05:52:34;5.83;;;5.33;;
13816;SDS011;6979;52.116;5.286;2022-09-09T05:55:03;4.93;;;3.70;;
13816;SDS011;6979;52.116;5.286;2022-09-09T05:57:31;3.70;;;3.37;;
13816;SDS011;6979;52.116;5.286;2022-09-09T05:59:58;3.70;;;3.20;;
13816;SDS011;6979;52.116;5.286;2022-09-09T06:02:25;3.47;;;3.13;;
13816;SDS011;6979;52.116;5.286;2022-09-09T06:04:52;3.03;;;2.80;;
13816;SDS011;6979;52.116;5.286;2022-09-09T06:07:21;3.20;;;2.97;;
13816;SDS011;6979;52.116;5.286;2022-09-09T06:09:50;3.30;;;3.00;;
13816;SDS011;6979;52.116;5.286;2022-09-09T06:12:18;5.27;;;3.83;;
13816;SDS011;6979;52.116;5.286;2022-09-09T06:14:46;3.83;;;2.97;;
13816;SDS011;6979;52.116;5.286;2022-09-09T06:17:13;4.83;;;4.43;;
13816;SDS011;6979;52.116;5.286;2022-09-09T06:19:40;5.57;;;4.30;;
13816;SDS011;6979;52.116;5.286;2022-09-09T06:22:07;3.37;;;2.90;;
13816;SDS011;6979;52.116;5.286;2022-09-09T06:24:38;3.10;;;2.80;;
13816;SDS011;6979;52.116;5.286;2022-09-09T06:27:07;2.87;;;2.67;;
13816;SDS011;6979;52.116;5.286;2022-09-09T06:29:35;2.97;;;2.77;;
13816;SDS011;6979;52.116;5.286;2022-09-09T06:32:02;4.83;;;2.87;;
13816;SDS011;6979;52.116;5.286;2022-09-09T06:34:29;3.17;;;2.93;;
13816;SDS011;6979;52.116;5.286;2022-09-09T06:36:57;5.27;;;2.63;;
13816;SDS011;6979;52.116;5.286;2022-09-09T06:39:28;3.00;;;2.60;;
13816;SDS011;6979;52.116;5.286;2022-09-09T06:41:56;2.80;;;2.60;;
13816;SDS011;6979;52.116;5.286;2022-09-09T06:44:43;6.73;;;3.43;;
13816;SDS011;6979;52.116;5.286;2022-09-09T06:47:16;3.37;;;2.80;;
13816;SDS011;6979;52.116;5.286;2022-09-09T06:49:43;6.03;;;3.50;;
13816;SDS011;6979;52.116;5.286;2022-09-09T06:52:10;3.77;;;1.90;;
13816;SDS011;6979;52.116;5.286;2022-09-09T06:54:37;3.30;;;3.00;;
13816;SDS011;6979;52.116;5.286;2022-09-09T06:57:05;4.53;;;3.60;;
13816;SDS011;6979;52.116;5.286;2022-09-09T06:59:33;6.73;;;3.87;;
13816;SDS011;6979;52.116;5.286;2022-09-09T07:02:03;3.40;;;2.60;;
13816;SDS011;6979;52.116;5.286;2022-09-09T07:04:30;6.27;;;3.60;;
13816;SDS011;6979;52.116;5.286;2022-09-09T07:06:57;3.37;;;3.03;;
13816;SDS011;6979;52.116;5.286;2022-09-09T07:09:24;6.90;;;3.17;;
13816;SDS011;6979;52.116;5.286;2022-09-09T07:11:52;3.50;;;2.60;;
13816;SDS011;6979;52.116;5.286;2022-09-09T07:14:21;4.70;;;3.13;;
13816;SDS011;6979;52.116;5.286;2022-09-09T07:16:55;5.43;;;3.17;;
13816;SDS011;6979;52.116;5.286;2022-09-09T07:19:24;3.87;;;2.60;;
13816;SDS011;6979;52.116;5.286;2022-09-09T07:21:52;6.93;;;3.80;;
13816;SDS011;6979;52.116;5.286;2022-09-09T07:24:21;6.93;;;3.10;;
13816;SDS011;6979;52.116;5.286;2022-09-09T07:26:49;6.07;;;2.93;;
13816;SDS011;6979;52.116;5.286;2022-09-09T07:29:17;8.73;;;3.83;;
13816;SDS011;6979;52.116;5.286;2022-09-09T07:31:44;5.53;;;3.03;;
13816;SDS011;6979;52.116;5.286;2022-09-09T07:34:15;3.90;;;2.73;;
13816;SDS011;6979;52.116;5.286;2022-09-09T07:36:44;10.90;;;6.53;;
13816;SDS011;6979;52.116;5.286;2022-09-09T07:39:12;4.40;;;4.10;;
13816;SDS011;6979;52.116;5.286;2022-09-09T07:41:45;6.10;;;3.73;;
13816;SDS011;6979;52.116;5.286;2022-09-09T07:44:16;5.20;;;2.87;;
13816;SDS011;6979;52.116;5.286;2022-09-09T07:46:48;4.07;;;2.50;;
13816;SDS011;6979;52.116;5.286;2022-09-09T07:49:19;3.70;;;2.80;;
13816;SDS011;6979;52.116;5.286;2022-09-09T07:51:48;3.37;;;3.07;;
13816;SDS011;6979;52.116;5.286;2022-09-09T07:54:17;4.63;;;2.63;;
13816;SDS011;6979;52.116;5.286;2022-09-09T07:56:49;5.17;;;2.60;;
13816;SDS011;6979;52.116;5.286;2022-09-09T07:59:17;6.23;;;4.50;;
13816;SDS011;6979;52.116;5.286;2022-09-09T08:01:48;6.07;;;4.63;;
13816;SDS011;6979;52.116;5.286;2022-09-09T08:04:20;7.37;;;3.17;;
13816;SDS011;6979;52.116;5.286;2022-09-09T08:06:50;3.67;;;2.83;;
13816;SDS011;6979;52.116;5.286;2022-09-09T08:09:20;5.53;;;2.83;;
13816;SDS011;6979;52.116;5.286;2022-09-09T08:11:54;5.83;;;2.73;;
13816;SDS011;6979;52.116;5.286;2022-09-09T08:14:22;3.23;;;2.33;;
13816;SDS011;6979;52.116;5.286;2022-09-09T08:16:50;5.10;;;3.47;;
13816;SDS011;6979;52.116;5.286;2022-09-09T08:19:20;2.80;;;1.80;;
13816;SDS011;6979;52.116;5.286;2022-09-09T08:21:47;3.37;;;2.53;;
13816;SDS011;6979;52.116;5.286;2022-09-09T08:24:15;5.00;;;3.53;;
13816;SDS011;6979;52.116;5.286;2022-09-09T08:26:47;3.70;;;3.40;;
13816;SDS011;6979;52.116;5.286;2022-09-09T08:29:16;4.17;;;3.10;;
13816;SDS011;6979;52.116;5.286;2022-09-09T08:31:46;5.73;;;2.60;;
13816;SDS011;6979;52.116;5.286;2022-09-09T08:34:15;5.37;;;2.43;;
13816;SDS011;6979;52.116;5.286;2022-09-09T08:36:43;2.63;;;2.27;;
13816;SDS011;6979;52.116;5.286;2022-09-09T08:39:12;4.60;;;2.20;;
13816;SDS011;6979;52.116;5.286;2022-09-09T08:41:49;4.90;;;2.30;;
13816;SDS011;6979;52.116;5.286;2022-09-09T08:44:38;3.60;;;2.17;;
13816;SDS011;6979;52.116;5.286;2022-09-09T08:47:18;3.10;;;2.70;;
13816;SDS011;6979;52.116;5.286;2022-09-09T08:49:58;3.23;;;2.07;;
13816;SDS011;6979;52.116;5.286;2022-09-09T08:52:36;5.27;;;3.40;;
13816;SDS011;6979;52.116;5.286;2022-09-09T08:55:12;3.87;;;2.27;;
13816;SDS011;6979;52.116;5.286;2022-09-09T08:57:49;4.30;;;3.00;;
13816;SDS011;6979;52.116;5.286;2022-09-09T09:00:18;3.87;;;2.50;;
13816;SDS011;6979;52.116;5.286;2022-09-09T09:02:46;4.57;;;3.17;;
13816;SDS011;6979;52.116;5.286;2022-09-09T09:05:23;7.07;;;4.47;;
13816;SDS011;6979;52.116;5.286;2022-09-09T09:07:59;2.73;;;2.33;;
13816;SDS011;6979;52.116;5.286;2022-09-09T09:10:38;4.33;;;2.53;;
13816;SDS011;6979;52.116;5.286;2022-09-09T09:13:18;3.33;;;2.20;;
13816;SDS011;6979;52.116;5.286;2022-09-09T09:15:52;3.33;;;2.30;;
13816;SDS011;6979;52.116;5.286;2022-09-09T09:18:23;4.53;;;2.53;;
13816;SDS011;6979;52.116;5.286;2022-09-09T09:20:53;6.17;;;2.13;;
13816;SDS011;6979;52.116;5.286;2022-09-09T09:23:28;3.80;;;2.53;;
13816;SDS011;6979;52.116;5.286;2022-09-09T09:26:00;3.60;;;2.70;;
13816;SDS011;6979;52.116;5.286;2022-09-09T09:28:31;2.40;;;1.80;;
13816;SDS011;6979;52.116;5.286;2022-09-09T09:31:06;4.70;;;2.40;;
13816;SDS011;6979;52.116;5.286;2022-09-09T09:33:38;7.93;;;3.83;;
13816;SDS011;6979;52.116;5.286;2022-09-09T09:36:12;4.87;;;4.40;;
13816;SDS011;6979;52.116;5.286;2022-09-09T09:38:51;5.23;;;3.90;;
13816;SDS011;6979;52.116;5.286;2022-09-09T09:41:28;4.93;;;2.70;;
13816;SDS011;6979;52.116;5.286;2022-09-09T09:43:58;5.00;;;3.20;;
13816;SDS011;6979;52.116;5.286;2022-09-09T09:46:27;2.87;;;2.00;;
13816;SDS011;6979;52.116;5.286;2022-09-09T09:49:08;2.63;;;1.90;;
13816;SDS011;6979;52.116;5.286;2022-09-09T09:51:37;4.27;;;2.60;;
13816;SDS011;6979;52.116;5.286;2022-09-09T09:54:08;3.43;;;2.03;;
13816;SDS011;6979;52.116;5.286;2022-09-09T09:56:44;2.87;;;2.27;;
13816;SDS011;6979;52.116;5.286;2022-09-09T09:59:24;2.30;;;2.10;;
13816;SDS011;6979;52.116;5.286;2022-09-09T10:02:13;2.40;;;2.20;;
13816;SDS011;6979;52.116;5.286;2022-09-09T10:04:43;2.80;;;2.23;;
13816;SDS011;6979;52.116;5.286;2022-09-09T10:07:11;3.77;;;2.60;;
13816;SDS011;6979;52.116;5.286;2022-09-09T10:09:42;3.20;;;2.30;;
13816;SDS011;6979;52.116;5.286;2022-09-09T10:12:12;3.73;;;2.70;;
13816;SDS011;6979;52.116;5.286;2022-09-09T10:14:51;4.27;;;3.20;;
13816;SDS011;6979;52.116;5.286;2022-09-09T10:17:27;4.07;;;2.73;;
13816;SDS011;6979;52.116;5.286;2022-09-09T10:20:00;2.70;;;2.50;;
13816;SDS011;6979;52.116;5.286;2022-09-09T10:22:39;4.00;;;2.60;;
13816;SDS011;6979;52.116;5.286;2022-09-09T10:25:25;3.83;;;2.23;;
13816;SDS011;6979;52.116;5.286;2022-09-09T10:28:09;5.13;;;2.77;;
13816;SDS011;6979;52.116;5.286;2022-09-09T10:30:58;4.77;;;2.63;;
13816;SDS011;6979;52.116;5.286;2022-09-09T10:33:37;3.30;;;2.37;;
13816;SDS011;6979;52.116;5.286;2022-09-09T10:36:13;3.97;;;2.57;;
13816;SDS011;6979;52.116;5.286;2022-09-09T10:38:45;4.00;;;2.50;;
13816;SDS011;6979;52.116;5.286;2022-09-09T10:41:15;5.20;;;3.30;;
13816;SDS011;6979;52.116;5.286;2022-09-09T10:43:51;4.90;;;2.47;;
13816;SDS011;6979;52.116;5.286;2022-09-09T10:46:43;2.70;;;2.50;;
13816;SDS011;6979;52.116;5.286;2022-09-09T10:49:21;5.80;;;3.43;;
13816;SDS011;6979;52.116;5.286;2022-09-09T10:52:00;3.63;;;2.70;;
13816;SDS011;6979;52.116;5.286;2022-09-09T10:54:37;4.03;;;3.23;;
13816;SDS011;6979;52.116;5.286;2022-09-09T10:57:16;3.30;;;2.80;;
13816;SDS011;6979;52.116;5.286;2022-09-09T10:59:54;5.60;;;3.10;;
13816;SDS011;6979;52.116;5.286;2022-09-09T11:02:27;5.10;;;3.83;;
13816;SDS011;6979;52.116;5.286;2022-09-09T11:04:57;7.57;;;6.77;;
13816;SDS011;6979;52.116;5.286;2022-09-09T11:07:28;6.17;;;3.80;;
13816;SDS011;6979;52.116;5.286;2022-09-09T11:10:02;3.97;;;3.03;;
13816;SDS011;6979;52.116;5.286;2022-09-09T11:12:32;5.87;;;3.40;;
13816;SDS011;6979;52.116;5.286;2022-09-09T11:15:05;5.60;;;2.87;;
13816;SDS011;6979;52.116;5.286;2022-09-09T11:17:41;3.77;;;2.40;;
13816;SDS011;6979;52.116;5.286;2022-09-09T11:20:12;2.83;;;2.60;;
13816;SDS011;6979;52.116;5.286;2022-09-09T11:22:42;8.00;;;3.27;;
13816;SDS011;6979;52.116;5.286;2022-09-09T11:25:15;3.17;;;2.87;;
13816;SDS011;6979;52.116;5.286;2022-09-09T11:27:49;5.20;;;3.23;;
13816;SDS011;6979;52.116;5.286;2022-09-09T11:30:27;3.77;;;2.70;;
13816;SDS011;6979;52.116;5.286;2022-09-09T11:33:13;3.53;;;2.43;;
13816;SDS011;6979;52.116;5.286;2022-09-09T11:36:01;2.80;;;2.53;;
13816;SDS011;6979;52.116;5.286;2022-09-09T11:38:41;5.77;;;2.97;;
13816;SDS011;6979;52.116;5.286;2022-09-09T11:41:11;3.13;;;2.47;;
13816;SDS011;6979;52.116;5.286;2022-09-09T11:43:40;4.00;;;3.10;;
13816;SDS011;6979;52.116;5.286;2022-09-09T11:46:08;3.10;;;2.33;;
13816;SDS011;6979;52.116;5.286;2022-09-09T11:48:39;4.17;;;2.80;;
13816;SDS011;6979;52.116;5.286;2022-09-09T11:51:11;2.63;;;2.10;;
13816;SDS011;6979;52.116;5.286;2022-09-09T11:53:49;4.17;;;2.50;;
13816;SDS011;6979;52.116;5.286;2022-09-09T11:56:24;2.80;;;2.50;;
13816;SDS011;6979;52.116;5.286;2022-09-09T11:58:54;4.07;;;2.23;;
13816;SDS011;6979;52.116;5.286;2022-09-09T12:01:27;3.77;;;2.30;;
13816;SDS011;6979;52.116;5.286;2022-09-09T12:04:12;2.77;;;2.53;;
13816;SDS011;6979;52.116;5.286;2022-09-09T12:06:56;3.20;;;2.63;;
13816;SDS011;6979;52.116;5.286;2022-09-09T12:09:27;4.93;;;2.33;;
13816;SDS011;6979;52.116;5.286;2022-09-09T12:12:07;3.40;;;2.67;;
13816;SDS011;6979;52.116;5.286;2022-09-09T12:14:54;4.50;;;2.57;;
13816;SDS011;6979;52.116;5.286;2022-09-09T12:17:24;2.67;;;2.40;;
13816;SDS011;6979;52.116;5.286;2022-09-09T12:20:01;4.33;;;2.43;;
13816;SDS011;6979;52.116;5.286;2022-09-09T12:22:34;2.87;;;2.63;;
13816;SDS011;6979;52.116;5.286;2022-09-09T12:25:09;4.20;;;3.30;;
13816;SDS011;6979;52.116;5.286;2022-09-09T12:27:45;4.53;;;2.83;;
13816;SDS011;6979;52.116;5.286;2022-09-09T12:30:27;3.70;;;2.50;;
13816;SDS011;6979;52.116;5.286;2022-09-09T12:33:02;4.00;;;2.73;;
13816;SDS011;6979;52.116;5.286;2022-09-09T12:35:36;2.57;;;2.37;;
13816;SDS011;6979;52.116;5.286;2022-09-09T12:38:04;3.97;;;2.77;;
13816;SDS011;6979;52.116;5.286;2022-09-09T12:40:36;4.37;;;3.57;;
13816;SDS011;6979;52.116;5.286;2022-09-09T12:43:15;3.27;;;3.03;;
13816;SDS011;6979;52.116;5.286;2022-09-09T12:45:44;3.03;;;2.60;;
13816;SDS011;6979;52.116;5.286;2022-09-09T12:48:11;3.37;;;2.50;;
13816;SDS011;6979;52.116;5.286;2022-09-09T12:50:44;3.20;;;3.00;;
13816;SDS011;6979;52.116;5.286;2022-09-09T12:53:16;4.70;;;3.67;;
13816;SDS011;6979;52.116;5.286;2022-09-09T12:55:49;5.57;;;2.93;;
13816;SDS011;6979;52.116;5.286;2022-09-09T12:58:19;3.97;;;3.60;;
13816;SDS011;6979;52.116;5.286;2022-09-09T13:00:50;5.03;;;3.27;;
13816;SDS011;6979;52.116;5.286;2022-09-09T13:03:18;3.20;;;3.00;;
13816;SDS011;6979;52.116;5.286;2022-09-09T13:05:47;3.47;;;3.23;;
13816;SDS011;6979;52.116;5.286;2022-09-09T13:08:15;4.50;;;3.57;;
13816;SDS011;6979;52.116;5.286;2022-09-09T13:10:46;6.17;;;3.90;;
13816;SDS011;6979;52.116;5.286;2022-09-09T13:13:20;3.63;;;3.40;;
13816;SDS011;6979;52.116;5.286;2022-09-09T13:15:49;2.93;;;2.63;;
13816;SDS011;6979;52.116;5.286;2022-09-09T13:18:20;3.00;;;2.67;;
13816;SDS011;6979;52.116;5.286;2022-09-09T13:20:50;3.60;;;3.00;;
13816;SDS011;6979;52.116;5.286;2022-09-09T13:23:17;4.40;;;3.10;;
13816;SDS011;6979;52.116;5.286;2022-09-09T13:25:52;3.07;;;2.60;;
13816;SDS011;6979;52.116;5.286;2022-09-09T13:28:20;5.13;;;3.30;;
13816;SDS011;6979;52.116;5.286;2022-09-09T13:30:58;4.73;;;2.83;;
13816;SDS011;6979;52.116;5.286;2022-09-09T13:33:30;5.40;;;3.00;;
13816;SDS011;6979;52.116;5.286;2022-09-09T13:36:00;3.33;;;2.70;;
13816;SDS011;6979;52.116;5.286;2022-09-09T13:38:30;2.87;;;2.67;;
13816;SDS011;6979;52.116;5.286;2022-09-09T13:41:00;4.10;;;3.30;;
13816;SDS011;6979;52.116;5.286;2022-09-09T13:43:30;3.40;;;3.10;;
13816;SDS011;6979;52.116;5.286;2022-09-09T13:46:00;3.97;;;3.03;;
13816;SDS011;6979;52.116;5.286;2022-09-09T13:48:28;3.63;;;2.90;;
13816;SDS011;6979;52.116;5.286;2022-09-09T13:50:57;2.73;;;2.50;;
13816;SDS011;6979;52.116;5.286;2022-09-09T13:53:28;3.07;;;2.77;;
13816;SDS011;6979;52.116;5.286;2022-09-09T13:55:55;3.27;;;3.03;;
13816;SDS011;6979;52.116;5.286;2022-09-09T13:58:23;3.20;;;2.60;;
13816;SDS011;6979;52.116;5.286;2022-09-09T14:00:51;3.73;;;2.83;;
13816;SDS011;6979;52.116;5.286;2022-09-09T14:03:18;5.03;;;3.17;;
13816;SDS011;6979;52.116;5.286;2022-09-09T14:05:45;3.20;;;3.00;;
13816;SDS011;6979;52.116;5.286;2022-09-09T14:08:17;3.40;;;3.20;;
13816;SDS011;6979;52.116;5.286;2022-09-09T14:10:48;3.30;;;3.10;;
13816;SDS011;6979;52.116;5.286;2022-09-09T14:13:15;3.50;;;3.00;;
13816;SDS011;6979;52.116;5.286;2022-09-09T14:15:42;3.10;;;2.90;;
13816;SDS011;6979;52.116;5.286;2022-09-09T14:18:09;3.10;;;2.90;;
13816;SDS011;6979;52.116;5.286;2022-09-09T14:20:38;3.23;;;2.93;;
13816;SDS011;6979;52.116;5.286;2022-09-09T14:23:05;3.47;;;2.90;;
13816;SDS011;6979;52.116;5.286;2022-09-09T14:25:37;3.47;;;3.17;;
13816;SDS011;6979;52.116;5.286;2022-09-09T14:28:07;3.43;;;3.13;;
13816;SDS011;6979;52.116;5.286;2022-09-09T14:30:36;3.17;;;2.93;;
13816;SDS011;6979;52.116;5.286;2022-09-09T14:33:04;4.37;;;3.13;;
13816;SDS011;6979;52.116;5.286;2022-09-09T14:35:30;5.73;;;3.67;;
13816;SDS011;6979;52.116;5.286;2022-09-09T14:37:58;3.70;;;3.37;;
13816;SDS011;6979;52.116;5.286;2022-09-09T14:40:26;3.20;;;2.67;;
13816;SDS011;6979;52.116;5.286;2022-09-09T14:42:54;4.30;;;4.00;;
13816;SDS011;6979;52.116;5.286;2022-09-09T14:45:21;3.63;;;3.33;;
13816;SDS011;6979;52.116;5.286;2022-09-09T14:47:50;4.20;;;3.30;;
13816;SDS011;6979;52.116;5.286;2022-09-09T14:50:17;6.53;;;3.90;;
13816;SDS011;6979;52.116;5.286;2022-09-09T14:52:43;4.23;;;3.83;;
13816;SDS011;6979;52.116;5.286;2022-09-09T14:55:10;4.47;;;3.97;;
13816;SDS011;6979;52.116;5.286;2022-09-09T14:57:37;4.47;;;4.07;;
13816;SDS011;6979;52.116;5.286;2022-09-09T15:00:07;6.10;;;4.33;;
13816;SDS011;6979;52.116;5.286;2022-09-09T15:02:35;4.47;;;4.10;;
13816;SDS011;6979;52.116;5.286;2022-09-09T15:05:03;5.30;;;4.80;;
13816;SDS011;6979;52.116;5.286;2022-09-09T15:07:30;4.97;;;4.03;;
13816;SDS011;6979;52.116;5.286;2022-09-09T15:09:59;3.80;;;3.60;;
13816;SDS011;6979;52.116;5.286;2022-09-09T15:12:25;3.17;;;2.93;;
13816;SDS011;6979;52.116;5.286;2022-09-09T15:14:53;3.43;;;2.70;;
13816;SDS011;6979;52.116;5.286;2022-09-09T15:17:22;2.27;;;2.10;;
13816;SDS011;6979;52.116;5.286;2022-09-09T15:19:52;2.17;;;1.97;;
13816;SDS011;6979;52.116;5.286;2022-09-09T15:22:20;2.87;;;1.90;;
13816;SDS011;6979;52.116;5.286;2022-09-09T15:24:47;2.03;;;1.93;;
13816;SDS011;6979;52.116;5.286;2022-09-09T15:27:14;2.50;;;2.20;;